News

ATPL Integrated free webinar

Fying Academy is hosting on 5th of February from 16:30 till 17:30 CET (UTC+1) a free online webinar.

Our Flight Training Consultants will take you to each step of the process, on what are the requirements and the training phases to become a Commercial Pilot but also about what it's like to live and fly in the Czech Republic.

This free webinar, held in English, is meant to familiarize future Commercial Pilots about Flying Academy's ATPL Integrated pilot course.

You can register for free HERE.

continue reading >>

New 0-ATPL free webinar

Flying Academy is hosting on 29th of January from 16:00 to 17:00 CET (UTC+1) a free live webinar where our Flight Training Consultants will present all details about our 0-ATPL(A) course.

During this one hour presentation we will discuss about:

- course description

- requirements to enroll

- course duration and cost

- living in the Czech Republic

- visa assistance for non EU trainees

- extra curricular activities.

We will also have a Q&A session at the end so that all question which you might have will be answered.

You can register for free HERE.

continue reading >>

From 0-500 hours free webinar

Flying Academy is hosting on 22th of January from 17:00 to 18:00 CET (UTC+1) a free live webinar where our Flight Training Consultants will present all details about our 0-500 hours course.

During this one hour presentation we will discuss about:

- course description 

- requirements to enroll

- course duration and cost

- opportunities after training

- living in the Czech Republic and extra curricular activities.

We will also have a Q&A session at the end so that all question which you might have will be answered. You can register for free HERE.

continue reading >>

archive

Latest blog post

10 advantages for using the iPad in the cockpit

Flying Academy – the flight training organization managed by airline pilots – has started 2 months ago to equip its trainees with iPads. The Academy took the lead to revolutionize the cockpit and pilot training, realizing the vision of paperless flying and becoming the first Czech FTO to fly with iPad EFBs. The process will make learning to fly much easier, more efficient and accurate, useful for private pilots and important for future commercial pilots.

After having the iPad in trials, Flying Academy’s flight instructors have concluded that it’s extremely useful in the cockpit because it’s:

1. Fast – extremely short response time;

2. Reliable – as the iOS has very limited crashes;

3. Easy to use – intuitive menu and apps.

continue reading >>

archive

Latest weather

LKKV

LKKV 301500Z 22006KT 9999 FEW017 SCT033 M02/M05 Q0975 R29/29//95

LKPR

LKPR 301500Z 25013KT 9999 FEW033 01/M05 Q0976 NOSIG

LKTB

LKTB 301500Z 23004KT 1200 R28/1800D -SN BR SCT002 OVC020 00/M00 Q0976 R28/690295 BECMG 3000 BR



Briefing tools

METAR & TAF Europe

METAR & TAF CZ

Weather Radar CZ

AIP Czech Republic

Integrated ATPL(A) with 750 hours of ground, MCC, JOC on B737NG or A320 FFS + interview preparation course Register now!